createdAt,value
2018-09-02T00:01:23.125Z,10.50
2018-09-02T00:03:50.038Z,11.23
2018-09-02T00:06:17.096Z,11.10
2018-09-02T00:08:44.473Z,13.33
2018-09-02T00:11:12.250Z,12.43
2018-09-02T00:13:39.306Z,12.80
2018-09-02T00:16:06.323Z,13.17
2018-09-02T00:18:33.439Z,14.57
2018-09-02T00:21:00.492Z,14.80
2018-09-02T00:23:27.519Z,15.10
2018-09-02T00:25:54.532Z,16.50
2018-09-02T00:28:21.619Z,16.70
2018-09-02T00:30:48.635Z,17.53
2018-09-02T00:33:16.657Z,17.03
2018-09-02T00:35:43.668Z,19.30
2018-09-02T00:38:10.687Z,18.70
2018-09-02T00:40:38.657Z,17.87
2018-09-02T00:43:05.719Z,19.73
2018-09-02T00:45:32.744Z,19.03
2018-09-02T00:47:59.777Z,20.77
2018-09-02T00:50:26.858Z,20.63
2018-09-02T00:52:53.878Z,19.53
2018-09-02T00:55:20.897Z,20.00
2018-09-02T00:57:48.166Z,21.13
2018-09-02T01:00:16.092Z,17.33
2018-09-02T01:05:21.993Z,20.83
2018-09-02T01:07:49.018Z,17.27
2018-09-02T01:10:16.029Z,16.60
2018-09-02T01:15:21.647Z,22.15
2018-09-02T01:17:48.694Z,17.30
2018-09-02T01:20:15.695Z,17.60
2018-09-02T01:22:42.698Z,19.27
2018-09-02T01:25:09.730Z,16.93
2018-09-02T01:27:36.731Z,15.93
2018-09-02T01:30:03.751Z,15.37
2018-09-02T01:32:30.786Z,15.40
2018-09-02T01:34:57.813Z,15.67
2018-09-02T01:37:24.914Z,16.07
2018-09-02T01:39:52.504Z,15.47
2018-09-02T01:42:19.536Z,14.70
2018-09-02T01:44:46.918Z,15.07
2018-09-02T01:47:14.001Z,14.60
2018-09-02T01:49:41.028Z,15.30
2018-09-02T01:52:08.996Z,14.83
2018-09-02T01:54:36.042Z,15.87
2018-09-02T01:57:03.086Z,14.97
2018-09-02T02:02:09.206Z,20.33
2018-09-02T02:04:36.222Z,18.87
2018-09-02T02:07:03.239Z,17.57
2018-09-02T02:09:30.286Z,15.70
2018-09-02T02:11:57.736Z,15.27
2018-09-02T02:14:24.758Z,13.70
2018-09-02T02:16:52.651Z,11.80
2018-09-02T02:19:20.646Z,12.30
2018-09-02T02:21:48.168Z,10.63
2018-09-02T02:24:15.151Z,14.70
2018-09-02T02:26:42.155Z,15.37
2018-09-02T02:29:09.211Z,15.33
2018-09-02T02:31:36.341Z,14.23
2018-09-02T02:34:03.385Z,17.00
2018-09-02T02:36:30.400Z,15.63
2018-09-02T02:38:57.459Z,14.70
2018-09-02T02:41:24.490Z,15.20
2018-09-02T02:43:51.515Z,15.80
2018-09-02T02:46:18.592Z,14.13
2018-09-02T02:48:46.196Z,14.90
2018-09-02T02:51:13.240Z,15.40
2018-09-02T02:53:40.277Z,14.80
2018-09-02T02:56:08.261Z,15.50
2018-09-02T02:58:35.289Z,14.87
2018-09-02T03:01:02.349Z,15.03
2018-09-02T03:03:29.704Z,16.17
2018-09-02T03:08:35.851Z,18.55
2018-09-02T03:11:02.884Z,16.17
2018-09-02T03:13:29.916Z,16.20
2018-09-02T03:15:56.993Z,16.57
2018-09-02T03:18:24.005Z,15.00
2018-09-02T03:20:51.859Z,16.80
2018-09-02T03:23:18.925Z,18.00
2018-09-02T03:25:45.941Z,19.27
2018-09-02T03:28:12.983Z,19.37
2018-09-02T03:30:40.039Z,19.40
2018-09-02T03:33:07.061Z,19.57
2018-09-02T03:35:34.187Z,19.57
2018-09-02T03:38:01.258Z,21.67
2018-09-02T03:40:28.279Z,18.87
2018-09-02T03:42:55.316Z,20.00
2018-09-02T03:45:22.362Z,16.07
2018-09-02T03:47:49.384Z,17.87
2018-09-02T03:50:17.371Z,18.87
2018-09-02T03:52:45.411Z,17.20
2018-09-02T03:55:13.398Z,18.27
2018-09-02T03:57:41.378Z,18.60
2018-09-02T04:00:10.405Z,20.03
2018-09-02T04:02:37.447Z,18.77
2018-09-02T04:05:04.539Z,18.20
2018-09-02T04:07:31.608Z,17.90
2018-09-02T04:09:58.630Z,19.00
2018-09-02T04:12:25.663Z,18.90
2018-09-02T04:14:52.738Z,17.20
2018-09-02T04:17:19.756Z,17.93
2018-09-02T04:19:47.751Z,18.10
2018-09-02T04:22:14.805Z,17.83
2018-09-02T04:27:21.381Z,20.30
2018-09-02T04:29:48.404Z,17.47
2018-09-02T04:32:16.372Z,16.20
2018-09-02T04:34:43.477Z,16.03
2018-09-02T04:37:10.484Z,16.20
2018-09-02T04:39:37.496Z,16.13
2018-09-02T04:42:04.557Z,15.77
2018-09-02T04:44:31.563Z,14.83
2018-09-02T04:46:59.409Z,15.20
2018-09-02T04:49:26.437Z,15.00
2018-09-02T04:51:54.298Z,15.73
2018-09-02T04:54:23.293Z,16.03
2018-09-02T04:56:50.236Z,14.00
2018-09-02T04:59:17.239Z,14.23
2018-09-02T05:01:44.252Z,15.37
2018-09-02T05:04:11.299Z,16.07
2018-09-02T05:06:38.330Z,14.90
2018-09-02T05:09:05.341Z,15.37
2018-09-02T05:11:32.408Z,16.77
2018-09-02T05:13:59.504Z,15.93
2018-09-02T05:16:27.000Z,15.67
2018-09-02T05:18:54.028Z,15.10
2018-09-02T05:21:21.046Z,13.83
2018-09-02T05:23:48.072Z,14.87
2018-09-02T05:26:16.063Z,15.00
2018-09-02T05:28:43.195Z,14.87
2018-09-02T05:31:10.957Z,15.67
2018-09-02T05:33:38.095Z,15.70
2018-09-02T05:38:43.640Z,17.95
2018-09-02T05:41:10.669Z,14.80
2018-09-02T05:43:37.767Z,14.83
2018-09-02T05:46:04.842Z,13.70
2018-09-02T05:48:32.536Z,15.40
2018-09-02T05:50:59.552Z,14.50
2018-09-02T05:53:26.614Z,13.40
2018-09-02T05:55:53.646Z,14.33
2018-09-02T05:58:20.672Z,15.23
2018-09-02T06:00:47.727Z,13.60
2018-09-02T06:03:15.884Z,13.07
2018-09-02T06:05:42.899Z,13.90
2018-09-02T06:08:10.689Z,15.13
2018-09-02T06:10:37.709Z,14.87
2018-09-02T06:13:05.536Z,13.13
2018-09-02T06:15:32.596Z,14.27
2018-09-02T06:18:00.480Z,12.10
2018-09-02T06:20:27.512Z,12.20
2018-09-02T06:22:54.578Z,11.97
2018-09-02T06:25:21.603Z,11.60
2018-09-02T06:27:51.248Z,10.83
2018-09-02T06:30:16.158Z,11.53
2018-09-02T06:32:43.201Z,11.57
2018-09-02T06:35:11.131Z,12.37
2018-09-02T06:37:38.172Z,10.20
2018-09-02T06:42:46.696Z,12.82
2018-09-02T06:45:14.087Z,11.63
2018-09-02T06:47:41.111Z,12.33
2018-09-02T06:50:09.005Z,11.57
2018-09-02T06:52:36.154Z,12.50
2018-09-02T06:55:04.271Z,12.07
2018-09-02T06:57:31.926Z,12.00
2018-09-02T07:02:37.116Z,14.25
2018-09-02T07:05:04.170Z,13.43
2018-09-02T07:07:31.207Z,13.47
2018-09-02T07:09:58.276Z,12.03
2018-09-02T07:12:25.313Z,11.63
2018-09-02T07:14:53.222Z,12.33
2018-09-02T07:17:21.255Z,11.97
2018-09-02T07:19:49.249Z,11.77
2018-09-02T07:22:16.480Z,11.40
2018-09-02T07:24:43.569Z,13.03
2018-09-02T07:27:10.601Z,11.60
2018-09-02T07:29:38.484Z,10.33
2018-09-02T07:32:06.075Z,12.00
2018-09-02T07:34:33.110Z,11.80
2018-09-02T07:39:40.719Z,13.85
2018-09-02T07:42:07.744Z,12.00
2018-09-02T07:44:34.762Z,10.80
2018-09-02T07:47:01.805Z,10.53
2018-09-02T07:49:28.842Z,12.60
2018-09-02T07:51:55.967Z,11.00
2018-09-02T07:54:23.080Z,10.80
2018-09-02T07:56:50.486Z,10.37
2018-09-02T07:59:17.514Z,11.30
2018-09-02T08:01:44.563Z,10.23
2018-09-02T08:04:11.593Z,10.90
2018-09-02T08:06:38.617Z,11.07
2018-09-02T08:09:05.692Z,11.17
2018-09-02T08:11:32.735Z,11.23
2018-09-02T08:13:59.766Z,10.73
2018-09-02T08:16:26.854Z,10.23
2018-09-02T08:18:54.581Z,9.07
2018-09-02T08:21:21.628Z,9.40
2018-09-02T08:23:48.725Z,9.27
2018-09-02T08:26:16.246Z,8.10
2018-09-02T08:28:44.093Z,8.40
2018-09-02T08:31:11.170Z,7.73
2018-09-02T08:36:16.407Z,5.87
2018-09-02T08:38:43.435Z,5.90
2018-09-02T08:41:10.460Z,6.60
2018-09-02T08:43:38.507Z,5.90
2018-09-02T08:46:05.527Z,6.30
2018-09-02T08:48:32.544Z,5.90
2018-09-02T08:50:59.742Z,5.53
2018-09-02T08:53:27.081Z,6.13
2018-09-02T08:55:54.162Z,4.80
2018-09-02T08:58:21.162Z,3.43
2018-09-02T09:00:48.196Z,3.30
2018-09-02T09:03:16.129Z,2.77
2018-09-02T09:05:43.168Z,3.33
2018-09-02T09:08:11.620Z,3.87
2018-09-02T09:10:38.597Z,4.47
2018-09-02T09:13:05.629Z,3.37
2018-09-02T09:15:32.652Z,3.73
2018-09-02T09:17:59.671Z,2.17
2018-09-02T09:20:26.746Z,2.40
2018-09-02T09:22:53.769Z,2.03
2018-09-02T09:25:20.776Z,2.37
2018-09-02T09:27:47.822Z,3.70
2018-09-02T09:30:15.709Z,3.33
2018-09-02T09:32:42.722Z,2.90
2018-09-02T09:35:09.783Z,2.80
2018-09-02T09:37:36.799Z,2.67
2018-09-02T09:40:03.811Z,1.73
2018-09-02T09:42:30.854Z,2.23
2018-09-02T09:44:57.870Z,1.20
2018-09-02T09:47:24.890Z,1.07
2018-09-02T09:49:51.942Z,0.90
2018-09-02T09:52:18.958Z,1.17
2018-09-02T09:54:46.001Z,1.50
2018-09-02T09:57:14.392Z,1.50
2018-09-02T10:02:23.730Z,1.12
2018-09-02T10:04:51.778Z,1.17
2018-09-02T10:07:18.798Z,1.30
2018-09-02T10:09:46.648Z,0.90
2018-09-02T10:12:13.639Z,1.10
2018-09-02T10:14:41.542Z,0.90
2018-09-02T10:17:09.428Z,1.00
2018-09-02T10:19:37.361Z,1.20
2018-09-02T10:22:04.397Z,1.10
2018-09-02T10:24:31.439Z,1.20
2018-09-02T10:26:58.541Z,1.23
2018-09-02T10:29:25.569Z,1.50
2018-09-02T10:31:52.600Z,1.30
2018-09-02T10:34:19.611Z,1.37
2018-09-02T10:36:46.610Z,1.70
2018-09-02T10:39:15.078Z,1.60
2018-09-02T10:41:43.046Z,1.37
2018-09-02T10:44:10.937Z,1.10
2018-09-02T10:46:37.989Z,1.20
2018-09-02T10:49:05.007Z,1.20
2018-09-02T10:51:32.023Z,0.90
2018-09-02T10:53:59.093Z,0.90
2018-09-02T10:56:26.106Z,1.30
2018-09-02T10:58:53.133Z,1.57
2018-09-02T11:01:20.193Z,1.10
2018-09-02T11:03:47.220Z,1.13
2018-09-02T11:06:14.247Z,1.20
2018-09-02T11:08:42.356Z,0.90
2018-09-02T11:11:09.934Z,1.10
2018-09-02T11:13:37.112Z,1.00
2018-09-02T11:16:04.032Z,0.90
2018-09-02T11:18:31.124Z,0.83
2018-09-02T11:20:58.150Z,0.67
2018-09-02T11:23:25.202Z,0.80
2018-09-02T11:28:30.747Z,0.90
2018-09-02T11:30:57.755Z,0.63
2018-09-02T11:33:24.774Z,0.50
2018-09-02T11:35:51.823Z,0.60
2018-09-02T11:38:19.693Z,0.47
2018-09-02T11:40:46.706Z,0.60
2018-09-02T11:43:13.758Z,0.70
2018-09-02T11:45:40.785Z,0.57
2018-09-02T11:48:07.804Z,0.63
2018-09-02T11:50:35.695Z,0.60
2018-09-02T11:53:02.708Z,0.50
2018-09-02T11:55:29.728Z,0.43
2018-09-02T11:57:57.380Z,0.47
2018-09-02T12:00:25.362Z,0.40
2018-09-02T12:02:53.345Z,0.40
2018-09-02T12:05:20.536Z,0.63
2018-09-02T12:07:47.611Z,0.50
2018-09-02T12:10:16.141Z,0.30
2018-09-02T12:12:43.245Z,0.60
2018-09-02T12:15:10.320Z,0.50
2018-09-02T12:17:37.815Z,0.67
2018-09-02T12:20:04.938Z,0.40
2018-09-02T12:22:31.969Z,0.50
2018-09-02T12:24:59.024Z,0.30
2018-09-02T12:27:26.083Z,0.40
2018-09-02T12:29:54.460Z,0.30
2018-09-02T12:34:58.868Z,0.50
2018-09-02T12:37:25.947Z,0.40
2018-09-02T12:39:53.014Z,0.40
2018-09-02T12:42:20.459Z,0.50
2018-09-02T12:44:47.439Z,0.50
2018-09-02T12:47:17.383Z,0.50
2018-09-02T12:49:41.602Z,0.33
2018-09-02T12:52:08.770Z,0.60
2018-09-02T12:54:35.785Z,0.50
2018-09-02T12:57:04.866Z,0.40
2018-09-02T12:59:30.678Z,0.30
2018-09-02T13:01:58.715Z,0.50
2018-09-02T13:04:25.823Z,0.40
2018-09-02T13:06:53.652Z,0.50
2018-09-02T13:09:20.586Z,0.30
2018-09-02T13:11:48.678Z,0.40
2018-09-02T13:14:15.725Z,0.40
2018-09-02T13:16:42.880Z,0.40
2018-09-02T13:19:12.167Z,0.30
2018-09-02T13:21:40.125Z,0.40
2018-09-02T13:24:07.356Z,0.30
2018-09-02T13:26:34.256Z,0.30
2018-09-02T13:29:01.323Z,0.30
2018-09-02T13:31:29.391Z,0.40
2018-09-02T13:33:56.516Z,0.40
2018-09-02T13:36:23.579Z,0.40
2018-09-02T13:38:50.552Z,0.40
2018-09-02T13:43:56.327Z,0.40
2018-09-02T13:46:23.309Z,0.40
2018-09-02T13:48:50.389Z,0.30
2018-09-02T13:51:18.524Z,0.40
2018-09-02T13:53:45.532Z,0.40
2018-09-02T13:56:12.875Z,0.40
2018-09-02T13:58:39.877Z,0.30
2018-09-02T14:01:06.987Z,0.40
2018-09-02T14:03:33.942Z,0.40
2018-09-02T14:06:00.968Z,0.23
2018-09-02T14:08:28.076Z,0.50
2018-09-02T14:10:55.085Z,0.40
2018-09-02T14:13:22.115Z,0.40
2018-09-02T14:15:49.170Z,0.33
2018-09-02T14:18:16.266Z,0.33
2018-09-02T14:20:43.285Z,0.33
2018-09-02T14:23:10.327Z,0.30
2018-09-02T14:25:37.343Z,0.43
2018-09-02T14:28:05.220Z,0.40
2018-09-02T14:30:32.367Z,0.40
2018-09-02T14:32:59.563Z,0.60
2018-09-02T14:35:27.398Z,0.50
2018-09-02T14:37:54.419Z,0.40
2018-09-02T14:40:21.434Z,0.40
2018-09-02T14:42:48.585Z,0.50
2018-09-02T14:45:16.428Z,0.40
2018-09-02T14:47:44.175Z,0.40
2018-09-02T14:50:11.348Z,0.43
2018-09-02T14:52:39.242Z,0.30
2018-09-02T14:57:44.782Z,0.40
2018-09-02T15:00:11.910Z,0.40
2018-09-02T15:02:39.879Z,0.33
2018-09-02T15:05:06.928Z,0.57
2018-09-02T15:07:33.926Z,0.43
2018-09-02T15:10:00.960Z,0.43
2018-09-02T15:12:28.152Z,0.50
2018-09-02T15:14:55.162Z,0.40
2018-09-02T15:17:22.181Z,0.50
2018-09-02T15:19:49.228Z,0.60
2018-09-02T15:22:16.247Z,0.50
2018-09-02T15:24:43.264Z,0.53
2018-09-02T15:27:10.845Z,0.60
2018-09-02T15:29:37.851Z,0.50
2018-09-02T15:32:04.858Z,0.50
2018-09-02T15:34:31.908Z,0.73
2018-09-02T15:36:58.935Z,0.60
2018-09-02T15:39:26.013Z,0.70
2018-09-02T15:41:53.000Z,0.70
2018-09-02T15:44:20.035Z,0.60
2018-09-02T15:46:47.146Z,0.60
2018-09-02T15:49:14.199Z,0.60
2018-09-02T15:51:41.221Z,0.50
2018-09-02T15:54:08.251Z,0.60
2018-09-02T15:56:35.303Z,0.90
2018-09-02T15:59:02.414Z,0.80
2018-09-02T16:01:29.430Z,0.60
2018-09-02T16:03:56.476Z,0.67
2018-09-02T16:06:24.342Z,0.73
2018-09-02T16:08:52.281Z,0.70
2018-09-02T16:11:19.334Z,0.87
2018-09-02T16:13:46.365Z,0.70
2018-09-02T16:18:52.856Z,0.50
2018-09-02T16:21:19.866Z,0.50
2018-09-02T16:23:47.739Z,0.70
2018-09-02T16:26:14.789Z,0.67
2018-09-02T16:28:41.820Z,0.70
2018-09-02T16:31:08.849Z,0.60
2018-09-02T16:33:35.893Z,0.60
2018-09-02T16:36:03.003Z,0.70
2018-09-02T16:38:29.919Z,0.90
2018-09-02T16:40:56.995Z,0.60
2018-09-02T16:43:24.866Z,0.90
2018-09-02T16:45:52.846Z,0.90
2018-09-02T16:48:19.895Z,1.20
2018-09-02T16:50:46.931Z,1.17
2018-09-02T16:53:13.946Z,0.97
2018-09-02T16:55:40.985Z,0.60
2018-09-02T16:58:08.135Z,0.70
2018-09-02T17:00:35.147Z,0.80
2018-09-02T17:03:02.291Z,0.70
2018-09-02T17:05:29.602Z,0.83
2018-09-02T17:07:56.621Z,0.77
2018-09-02T17:10:23.675Z,0.70
2018-09-02T17:12:50.750Z,1.00
2018-09-02T17:15:17.916Z,0.50
2018-09-02T17:17:45.393Z,1.07
2018-09-02T17:20:12.409Z,0.90
2018-09-02T17:22:39.417Z,0.90
2018-09-02T17:25:06.498Z,0.90
2018-09-02T17:27:33.527Z,1.20
2018-09-02T17:30:00.552Z,0.87
2018-09-02T17:32:28.605Z,1.10
2018-09-02T17:34:56.306Z,0.80
2018-09-02T17:37:24.185Z,1.00
2018-09-02T17:39:51.213Z,1.00
2018-09-02T17:44:57.299Z,0.90
2018-09-02T17:47:24.314Z,1.00
2018-09-02T17:49:51.329Z,0.93
2018-09-02T17:52:18.468Z,1.00
2018-09-02T17:54:45.505Z,0.90
2018-09-02T17:57:12.875Z,1.03
2018-09-02T17:59:40.759Z,1.20
2018-09-02T18:02:08.721Z,1.40
2018-09-02T18:04:35.756Z,1.40
2018-09-02T18:09:34.968Z,1.03
2018-09-02T18:12:02.075Z,1.40
2018-09-02T18:14:29.142Z,1.20
2018-09-02T18:16:57.146Z,1.07
2018-09-02T18:19:24.583Z,1.40
2018-09-02T18:21:51.725Z,1.20
2018-09-02T18:24:18.745Z,1.70
2018-09-02T18:26:46.011Z,1.70
2018-09-02T18:29:13.068Z,1.30
2018-09-02T18:31:40.081Z,1.70
2018-09-02T18:34:07.105Z,1.37
2018-09-02T18:36:34.180Z,1.60
2018-09-02T18:39:01.924Z,1.57
2018-09-02T18:41:28.911Z,1.20
2018-09-02T18:43:55.969Z,1.50
2018-09-02T18:46:23.522Z,1.70
2018-09-02T18:48:51.474Z,1.90
2018-09-02T18:51:18.553Z,1.50
2018-09-02T18:53:45.595Z,1.43
2018-09-02T18:58:54.078Z,1.58
2018-09-02T19:01:21.168Z,1.43
2018-09-02T19:03:49.122Z,1.60
2018-09-02T19:06:16.755Z,1.90
2018-09-02T19:08:45.390Z,1.40
2018-09-02T19:11:13.371Z,1.70
2018-09-02T19:13:40.451Z,1.47
2018-09-02T19:16:08.185Z,1.50
2018-09-02T19:18:35.085Z,1.47
2018-09-02T19:21:02.166Z,1.20
2018-09-02T19:23:29.190Z,1.60
2018-09-02T19:25:56.220Z,5.73
2018-09-02T19:28:23.330Z,2.97
2018-09-02T19:30:50.361Z,4.60
2018-09-02T19:33:17.782Z,1.63
2018-09-02T19:35:44.856Z,2.57
2018-09-02T19:38:12.581Z,1.57
2018-09-02T19:40:39.693Z,1.80
2018-09-02T19:43:07.433Z,1.57
2018-09-02T19:45:34.460Z,1.57
2018-09-02T19:48:01.499Z,1.50
2018-09-02T19:50:28.650Z,1.60
2018-09-02T19:52:55.904Z,1.40
2018-09-02T19:55:22.891Z,1.60
2018-09-02T19:57:50.079Z,1.40
2018-09-02T20:00:17.039Z,13.80
2018-09-02T20:02:44.349Z,18.83
2018-09-02T20:05:11.416Z,12.07
2018-09-02T20:07:38.447Z,10.07
2018-09-02T20:12:49.374Z,1.55
2018-09-02T20:17:48.606Z,2.73
2018-09-02T20:20:15.727Z,2.30
2018-09-02T20:22:43.462Z,1.70
2018-09-02T20:25:10.837Z,1.70
2018-09-02T20:27:38.054Z,1.80
2018-09-02T20:30:05.148Z,1.90
2018-09-02T20:32:33.021Z,1.57
2018-09-02T20:35:03.011Z,1.67
2018-09-02T20:40:12.300Z,1.92
2018-09-02T20:42:41.314Z,1.70
2018-09-02T20:45:08.330Z,1.97
2018-09-02T20:47:39.161Z,1.47
2018-09-02T20:50:06.929Z,1.20
2018-09-02T20:55:12.102Z,1.60
2018-09-02T20:57:39.107Z,1.60
2018-09-02T21:00:06.137Z,1.43
2018-09-02T21:02:33.218Z,1.73
2018-09-02T21:05:00.232Z,1.80
2018-09-02T21:07:28.010Z,2.00
2018-09-02T21:12:42.573Z,1.80
2018-09-02T21:17:53.266Z,1.90
2018-09-02T21:20:20.328Z,1.47
2018-09-02T21:22:48.182Z,1.70
2018-09-02T21:25:15.275Z,2.07
2018-09-02T21:27:42.333Z,1.97
2018-09-02T21:30:09.355Z,1.70
2018-09-02T21:32:36.385Z,1.70
2018-09-02T21:37:45.778Z,1.70
2018-09-02T21:40:13.403Z,2.00
2018-09-02T21:42:40.447Z,1.90
2018-09-02T21:45:07.538Z,2.00
2018-09-02T21:47:34.711Z,1.50
2018-09-02T21:50:01.761Z,1.90
2018-09-02T21:52:28.826Z,2.00
2018-09-02T21:54:56.910Z,1.70
2018-09-02T21:57:23.957Z,1.90
2018-09-02T21:59:51.001Z,2.30
2018-09-02T22:02:18.159Z,1.60
2018-09-02T22:04:45.183Z,1.50
2018-09-02T22:07:12.225Z,2.17
2018-09-02T22:09:39.276Z,2.07
2018-09-02T22:12:06.331Z,1.90
2018-09-02T22:14:33.329Z,1.90
2018-09-02T22:17:00.400Z,2.10
2018-09-02T22:19:27.496Z,1.93
2018-09-02T22:21:55.475Z,1.90
2018-09-02T22:24:22.538Z,1.87
2018-09-02T22:26:49.554Z,2.20
2018-09-02T22:29:16.632Z,2.20
2018-09-02T22:31:43.625Z,2.10
2018-09-02T22:34:10.770Z,1.90
2018-09-02T22:36:38.020Z,2.40
2018-09-02T22:39:05.843Z,2.40
2018-09-02T22:41:33.072Z,2.10
2018-09-02T22:44:00.957Z,2.27
2018-09-02T22:46:28.083Z,2.30
2018-09-02T22:48:55.138Z,2.43
2018-09-02T22:54:00.694Z,2.20
2018-09-02T22:56:27.881Z,2.03
2018-09-02T22:58:57.004Z,1.90
2018-09-02T23:01:24.029Z,2.27
2018-09-02T23:03:51.062Z,2.33
2018-09-02T23:06:18.124Z,1.97
2018-09-02T23:08:46.156Z,2.00
2018-09-02T23:11:13.340Z,2.13
2018-09-02T23:13:40.375Z,2.17
2018-09-02T23:16:08.283Z,2.30
2018-09-02T23:18:35.888Z,2.43
2018-09-02T23:21:03.067Z,2.13
2018-09-02T23:23:30.130Z,1.93
2018-09-02T23:25:57.178Z,2.30
2018-09-02T23:28:24.218Z,2.17
2018-09-02T23:30:51.490Z,1.80
2018-09-02T23:33:18.557Z,1.77
2018-09-02T23:35:45.583Z,2.17
2018-09-02T23:38:13.658Z,2.17
2018-09-02T23:40:40.689Z,2.10
2018-09-02T23:43:07.711Z,2.10
2018-09-02T23:45:34.767Z,2.10
2018-09-02T23:48:01.829Z,1.97
2018-09-02T23:50:28.856Z,1.83
2018-09-02T23:52:55.927Z,2.10
2018-09-02T23:55:23.044Z,1.93
2018-09-02T23:57:50.867Z,1.97
